createdAt,value
2023-02-14T00:00:22.150Z,11.01
2023-02-14T00:02:50.357Z,10.96
2023-02-14T00:05:18.480Z,10.99
2023-02-14T00:07:46.469Z,10.96
2023-02-14T00:10:14.477Z,10.98
2023-02-14T00:12:43.770Z,10.99
2023-02-14T00:15:22.770Z,10.99
2023-02-14T00:17:50.819Z,10.90
2023-02-14T00:20:19.289Z,10.98
2023-02-14T00:22:47.359Z,10.94
2023-02-14T00:25:15.335Z,10.93
2023-02-14T00:27:44.790Z,10.93
2023-02-14T00:30:14.016Z,10.96
2023-02-14T00:32:42.562Z,10.93
2023-02-14T00:44:37.999Z,10.76
2023-02-14T00:47:06.149Z,10.83
2023-02-14T00:49:34.193Z,10.85
2023-02-14T00:52:02.537Z,10.85
2023-02-14T00:54:32.189Z,10.86
2023-02-14T00:57:00.373Z,10.88
2023-02-14T00:59:29.167Z,10.86
2023-02-14T01:01:58.618Z,10.86
2023-02-14T01:04:26.594Z,10.86
2023-02-14T01:06:54.669Z,10.88
2023-02-14T01:09:22.672Z,10.90
2023-02-14T01:11:59.084Z,10.78
2023-02-14T01:14:28.954Z,10.87
2023-02-14T01:17:00.354Z,10.86
2023-02-14T01:19:29.546Z,10.88
2023-02-14T01:21:57.620Z,10.88
2023-02-14T01:24:26.711Z,10.89
2023-02-14T01:26:54.714Z,10.84
2023-02-14T01:29:22.679Z,10.93
2023-02-14T01:31:53.586Z,10.97
2023-02-14T01:34:23.024Z,10.91
2023-02-14T01:36:50.992Z,10.89
2023-02-14T01:39:19.830Z,10.96
2023-02-14T01:41:49.043Z,11.06
2023-02-14T01:44:56.467Z,11.11
2023-02-14T01:47:24.531Z,11.07
2023-02-14T01:49:57.409Z,11.03
2023-02-14T01:52:27.560Z,11.00
2023-02-14T01:54:56.918Z,11.03
2023-02-14T01:57:29.501Z,11.01
2023-02-14T02:00:19.437Z,11.05
2023-02-14T02:02:47.506Z,11.08
2023-02-14T02:05:26.245Z,11.04
2023-02-14T02:07:56.248Z,11.12
2023-02-14T02:10:24.277Z,11.08
2023-02-14T02:12:52.616Z,11.07
2023-02-14T02:15:20.850Z,11.00
2023-02-14T02:17:54.285Z,10.91
2023-02-14T02:20:48.060Z,11.00
2023-02-14T02:23:53.397Z,10.96
2023-02-14T02:26:50.916Z,10.94
2023-02-14T02:29:31.548Z,10.90
2023-02-14T02:32:34.558Z,10.93
2023-02-14T02:35:28.669Z,10.91
2023-02-14T02:38:04.669Z,10.87
2023-02-14T02:40:37.670Z,10.93
2023-02-14T02:43:13.055Z,10.93
2023-02-14T02:45:59.614Z,11.00
2023-02-14T02:48:28.324Z,10.94
2023-02-14T02:51:15.269Z,11.01
2023-02-14T02:53:44.919Z,11.00
2023-02-14T02:56:32.049Z,11.04
2023-02-14T02:59:05.117Z,10.98
2023-02-14T03:01:37.790Z,10.97
2023-02-14T03:04:25.622Z,10.88
2023-02-14T03:06:54.971Z,10.93
2023-02-14T03:09:53.855Z,11.02
2023-02-14T03:12:51.343Z,11.00
2023-02-14T03:15:23.588Z,10.99
2023-02-14T03:17:56.756Z,11.10
2023-02-14T03:20:28.013Z,11.19
2023-02-14T03:22:59.696Z,11.22
2023-02-14T03:25:40.386Z,11.26
2023-02-14T03:28:14.666Z,11.17
2023-02-14T03:30:47.224Z,11.22
2023-02-14T03:33:19.710Z,11.18
2023-02-14T03:35:51.289Z,11.12
2023-02-14T03:38:22.695Z,11.10
2023-02-14T03:40:54.780Z,11.10
2023-02-14T03:43:29.080Z,11.10
2023-02-14T03:45:59.451Z,11.05
2023-02-14T03:48:27.611Z,11.00
2023-02-14T03:50:55.561Z,11.09
2023-02-14T03:53:26.500Z,11.12
2023-02-14T03:55:56.394Z,11.13
2023-02-14T03:58:28.455Z,11.06
2023-02-14T04:00:59.624Z,11.20
2023-02-14T04:03:27.969Z,11.17
2023-02-14T04:05:56.057Z,11.23
2023-02-14T04:08:26.169Z,11.22
2023-02-14T04:10:56.960Z,11.21
2023-02-14T04:13:25.149Z,11.22
2023-02-14T04:15:53.158Z,11.20
2023-02-14T04:18:38.478Z,11.22
2023-02-14T04:21:06.656Z,11.21
2023-02-14T04:23:36.037Z,11.24
2023-02-14T04:26:05.777Z,11.26
2023-02-14T04:28:37.353Z,11.27
2023-02-14T04:31:07.179Z,11.29
2023-02-14T04:33:35.206Z,11.30
2023-02-14T04:36:03.180Z,11.37
2023-02-14T04:38:31.104Z,11.33
2023-02-14T04:41:01.203Z,11.40
2023-02-14T04:43:29.600Z,11.41
2023-02-14T04:45:57.676Z,11.42
2023-02-14T04:48:25.749Z,11.40
2023-02-14T04:50:54.547Z,11.46
2023-02-14T04:53:22.516Z,11.42
2023-02-14T04:55:50.541Z,11.50
2023-02-14T04:58:20.786Z,11.55
2023-02-14T05:00:49.206Z,11.60
2023-02-14T05:03:19.280Z,11.58
2023-02-14T05:05:47.406Z,11.63
2023-02-14T05:08:15.540Z,11.69
2023-02-14T05:10:44.524Z,11.70
2023-02-14T05:13:26.323Z,11.70
2023-02-14T05:15:55.751Z,11.73
2023-02-14T05:18:23.832Z,11.67
2023-02-14T05:20:51.817Z,11.69
2023-02-14T05:23:19.869Z,11.80
2023-02-14T05:25:48.893Z,11.81
2023-02-14T05:28:16.934Z,11.83
2023-02-14T05:30:45.039Z,11.84
2023-02-14T05:33:14.459Z,11.81
2023-02-14T05:35:42.490Z,11.82
2023-02-14T05:38:10.562Z,11.86
2023-02-14T05:40:38.475Z,11.86
2023-02-14T05:43:06.837Z,11.89
2023-02-14T05:45:34.839Z,11.97
2023-02-14T05:48:02.852Z,11.92
2023-02-14T05:50:32.171Z,12.02
2023-02-14T05:53:00.144Z,12.04
2023-02-14T05:55:28.036Z,12.04
2023-02-14T05:57:56.079Z,12.02
2023-02-14T06:00:25.016Z,12.04
2023-02-14T06:02:53.000Z,12.05
2023-02-14T06:05:20.957Z,12.05
2023-02-14T06:07:51.405Z,12.08
2023-02-14T06:10:19.593Z,12.07
2023-02-14T06:12:47.612Z,12.06
2023-02-14T06:15:15.647Z,12.08
2023-02-14T06:17:43.588Z,12.12
2023-02-14T06:20:11.980Z,12.16
2023-02-14T06:22:40.146Z,12.22
2023-02-14T06:25:09.537Z,12.24
2023-02-14T06:27:37.517Z,12.29
2023-02-14T06:30:06.362Z,12.35
2023-02-14T06:32:34.358Z,12.41
2023-02-14T06:35:02.295Z,12.42
2023-02-14T06:37:30.274Z,12.44
2023-02-14T06:39:58.269Z,12.50
2023-02-14T06:42:27.895Z,12.50
2023-02-14T06:44:55.955Z,12.51
2023-02-14T06:47:23.895Z,12.54
2023-02-14T06:49:51.927Z,12.55
2023-02-14T06:52:19.876Z,12.60
2023-02-14T06:54:47.920Z,12.63
2023-02-14T06:57:15.842Z,12.64
2023-02-14T06:59:45.318Z,12.63
2023-02-14T07:02:13.302Z,12.67
2023-02-14T07:04:43.246Z,12.66
2023-02-14T07:07:11.255Z,12.64
2023-02-14T07:09:39.234Z,12.65
2023-02-14T07:12:07.742Z,12.69
2023-02-14T07:14:35.720Z,12.57
2023-02-14T07:17:05.147Z,12.62
2023-02-14T07:19:33.211Z,12.64
2023-02-14T07:22:01.239Z,12.61
2023-02-14T07:24:29.355Z,12.59
2023-02-14T07:26:57.317Z,12.58
2023-02-14T07:29:25.387Z,12.58
2023-02-14T07:31:53.370Z,12.59
2023-02-14T07:34:23.049Z,12.56
2023-02-14T07:36:51.020Z,12.55
2023-02-14T07:39:18.999Z,12.50
2023-02-14T07:41:47.274Z,12.53
2023-02-14T07:44:20.043Z,12.51
2023-02-14T07:46:48.086Z,12.50
2023-02-14T07:49:16.056Z,12.47
2023-02-14T07:51:45.698Z,12.49
2023-02-14T07:54:13.772Z,12.49
2023-02-14T07:56:41.740Z,12.44
2023-02-14T07:59:09.746Z,12.48
2023-02-14T08:01:37.787Z,12.49
2023-02-14T08:04:06.116Z,12.34
2023-02-14T08:06:34.034Z,12.39
2023-02-14T08:09:03.600Z,12.34
2023-02-14T08:11:48.927Z,12.51
2023-02-14T08:14:17.088Z,12.49
2023-02-14T08:16:45.038Z,12.50
2023-02-14T08:19:13.043Z,12.54
2023-02-14T08:21:41.033Z,12.54
2023-02-14T08:24:10.401Z,12.59
2023-02-14T08:26:38.425Z,12.58
2023-02-14T08:29:08.793Z,12.70
2023-02-14T08:31:37.542Z,12.75
2023-02-14T08:34:05.625Z,12.76
2023-02-14T08:36:34.946Z,12.82
2023-02-14T08:39:03.733Z,12.88
2023-02-14T08:41:40.732Z,12.94
2023-02-14T08:44:08.785Z,13.00
2023-02-14T08:46:38.333Z,13.03
2023-02-14T08:49:06.665Z,13.04
2023-02-14T08:51:35.351Z,13.05
2023-02-14T08:54:03.315Z,13.17
2023-02-14T08:56:31.403Z,13.16
2023-02-14T08:59:01.157Z,13.21
2023-02-14T09:01:29.560Z,13.24
2023-02-14T09:03:58.119Z,13.18
2023-02-14T09:06:26.297Z,13.16
2023-02-14T09:08:55.285Z,13.22
2023-02-14T09:11:24.557Z,13.23
2023-02-14T09:13:55.722Z,13.23
2023-02-14T09:16:25.739Z,13.21
2023-02-14T09:18:54.942Z,13.20
2023-02-14T09:21:25.550Z,13.28
2023-02-14T09:23:55.658Z,13.22
2023-02-14T09:26:26.140Z,13.30
2023-02-14T09:28:54.134Z,13.38
2023-02-14T09:31:23.390Z,13.34
2023-02-14T09:34:10.330Z,13.44
2023-02-14T09:36:55.787Z,13.47
2023-02-14T09:39:23.902Z,13.43
2023-02-14T09:42:30.559Z,13.48
2023-02-14T09:44:59.358Z,13.52
2023-02-14T09:47:33.039Z,13.51
2023-02-14T09:50:06.091Z,13.60
2023-02-14T09:52:41.766Z,13.65
2023-02-14T09:55:17.762Z,13.69
2023-02-14T09:57:52.799Z,13.81
2023-02-14T10:00:24.236Z,13.86
2023-02-14T10:02:59.561Z,13.97
2023-02-14T10:05:31.254Z,14.02
2023-02-14T10:08:02.038Z,14.04
2023-02-14T10:10:32.261Z,14.13
2023-02-14T10:13:04.380Z,14.16
2023-02-14T10:15:34.320Z,14.37
2023-02-14T10:18:05.782Z,14.36
2023-02-14T10:20:37.954Z,14.48
2023-02-14T10:23:08.787Z,14.66
2023-02-14T10:25:42.366Z,14.76
2023-02-14T10:28:11.480Z,14.87
2023-02-14T10:30:40.460Z,14.98
2023-02-14T10:33:13.062Z,15.07
2023-02-14T10:35:44.755Z,15.15
2023-02-14T10:38:21.711Z,15.22
2023-02-14T10:41:10.365Z,15.32
2023-02-14T10:43:41.492Z,15.33
2023-02-14T10:46:13.667Z,15.52
2023-02-14T10:48:49.735Z,15.70
2023-02-14T10:51:22.344Z,15.83
2023-02-14T10:54:00.544Z,16.02
2023-02-14T10:56:32.839Z,16.12
2023-02-14T10:59:15.083Z,16.24
2023-02-14T11:01:43.193Z,16.30
2023-02-14T11:04:13.157Z,16.29
2023-02-14T11:06:42.884Z,16.19
2023-02-14T11:09:12.141Z,16.14
2023-02-14T11:11:41.807Z,16.10
2023-02-14T11:16:51.909Z,16.05
2023-02-14T11:19:22.429Z,16.05
2023-02-14T11:21:52.162Z,16.11
2023-02-14T11:24:21.799Z,16.11
2023-02-14T11:26:50.149Z,16.04
2023-02-14T11:29:22.339Z,15.99
2023-02-14T11:31:50.516Z,15.98
2023-02-14T11:34:26.214Z,15.93
2023-02-14T11:36:56.586Z,15.93
2023-02-14T11:39:29.303Z,15.93
2023-02-14T11:41:58.930Z,15.98
2023-02-14T11:44:28.336Z,16.02
2023-02-14T11:46:57.095Z,15.99
2023-02-14T11:49:28.700Z,16.01
2023-02-14T11:51:59.266Z,16.04
2023-02-14T11:54:37.181Z,16.10
2023-02-14T11:57:07.565Z,16.12
2023-02-14T11:59:42.377Z,16.09
2023-02-14T12:02:28.553Z,16.20
2023-02-14T12:04:57.813Z,16.25
2023-02-14T12:07:29.747Z,16.22
2023-02-14T12:10:28.838Z,16.35
2023-02-14T12:12:59.608Z,16.34
2023-02-14T12:15:34.598Z,16.38
2023-02-14T12:18:21.971Z,16.43
2023-02-14T12:20:52.452Z,16.45
2023-02-14T12:23:25.648Z,16.53
2023-02-14T12:25:55.711Z,16.61
2023-02-14T12:28:26.068Z,16.63
2023-02-14T12:30:54.811Z,16.68
2023-02-14T12:33:24.899Z,16.70
2023-02-14T12:35:56.413Z,16.68
2023-02-14T12:38:32.047Z,16.71
2023-02-14T12:41:05.456Z,16.76
2023-02-14T12:43:45.516Z,16.82
2023-02-14T12:46:20.958Z,16.84
2023-02-14T12:48:57.764Z,16.87
2023-02-14T12:51:28.395Z,16.88
2023-02-14T12:54:03.584Z,16.93
2023-02-14T12:56:43.537Z,16.97
2023-02-14T12:59:20.328Z,16.95
2023-02-14T13:02:15.442Z,17.05
2023-02-14T13:04:57.904Z,17.08
2023-02-14T13:07:38.328Z,17.09
2023-02-14T13:10:17.453Z,17.18
2023-02-14T13:12:50.808Z,17.24
2023-02-14T13:15:23.742Z,17.36
2023-02-14T13:17:53.305Z,17.49
2023-02-14T13:20:32.936Z,17.58
2023-02-14T13:23:03.842Z,17.61
2023-02-14T13:25:36.203Z,17.70
2023-02-14T13:28:06.259Z,17.80
2023-02-14T13:30:40.866Z,17.87
2023-02-14T13:33:10.482Z,17.86
2023-02-14T13:35:40.919Z,17.97
2023-02-14T13:38:10.101Z,18.01
2023-02-14T13:40:39.636Z,18.02
2023-02-14T13:43:08.603Z,18.02
2023-02-14T13:45:56.054Z,17.95
2023-02-14T13:48:26.700Z,17.98
2023-02-14T13:50:56.990Z,17.96
2023-02-14T13:53:36.897Z,17.91
2023-02-14T13:56:07.806Z,17.93
2023-02-14T13:58:36.150Z,17.88
2023-02-14T14:01:33.351Z,17.90
2023-02-14T14:04:01.927Z,17.91
2023-02-14T14:06:34.380Z,17.91
2023-02-14T14:09:02.712Z,17.90
2023-02-14T14:12:01.069Z,17.92
2023-02-14T14:14:37.000Z,17.97
2023-02-14T14:17:29.390Z,17.96
2023-02-14T14:19:58.026Z,17.99
2023-02-14T14:22:26.516Z,17.97
2023-02-14T14:25:09.212Z,18.03
2023-02-14T14:27:42.110Z,18.03
2023-02-14T14:30:17.214Z,17.99
2023-02-14T14:32:46.621Z,17.96
2023-02-14T14:35:19.881Z,18.01
2023-02-14T14:37:48.857Z,18.07
2023-02-14T14:40:20.580Z,18.08
2023-02-14T14:42:50.078Z,18.10
2023-02-14T14:45:21.984Z,18.08
2023-02-14T14:47:50.120Z,18.09
2023-02-14T14:50:19.321Z,18.09
2023-02-14T14:52:48.173Z,18.07
2023-02-14T14:55:19.615Z,18.06
2023-02-14T14:57:51.430Z,18.14
2023-02-14T15:00:30.854Z,18.16
2023-02-14T15:03:04.095Z,18.15
2023-02-14T15:05:33.770Z,18.13
2023-02-14T15:08:15.989Z,18.20
2023-02-14T15:10:46.981Z,18.16
2023-02-14T15:13:33.762Z,18.19
2023-02-14T15:16:04.052Z,18.21
2023-02-14T15:18:32.905Z,18.18
2023-02-14T15:21:01.454Z,18.22
2023-02-14T15:23:29.593Z,18.20
2023-02-14T15:25:57.678Z,18.21
2023-02-14T15:28:31.062Z,18.12
2023-02-14T15:31:02.353Z,18.15
2023-02-14T15:33:31.303Z,18.16
2023-02-14T15:36:00.068Z,18.08
2023-02-14T15:38:28.132Z,18.03
2023-02-14T15:40:56.136Z,18.13
2023-02-14T15:43:30.327Z,18.13
2023-02-14T15:46:03.050Z,18.12
2023-02-14T15:48:33.217Z,18.14
2023-02-14T15:51:07.550Z,18.13
2023-02-14T15:53:45.980Z,18.10
2023-02-14T15:56:24.288Z,18.02
2023-02-14T15:58:57.562Z,18.02
2023-02-14T16:01:28.261Z,17.94
2023-02-14T16:03:58.209Z,17.84
2023-02-14T16:06:39.652Z,17.86
2023-02-14T16:09:08.687Z,17.95
2023-02-14T16:11:37.268Z,18.34
2023-02-14T16:14:41.004Z,18.85
2023-02-14T16:17:14.413Z,19.16
2023-02-14T16:19:43.747Z,19.34
2023-02-14T16:22:15.167Z,19.25
2023-02-14T16:24:43.830Z,19.20
2023-02-14T16:27:13.502Z,18.98
2023-02-14T16:29:41.793Z,18.69
2023-02-14T16:32:16.537Z,18.82
2023-02-14T16:34:47.622Z,18.79
2023-02-14T16:37:23.193Z,18.73
2023-02-14T16:39:51.390Z,18.76
2023-02-14T16:42:19.586Z,18.61
2023-02-14T16:44:47.968Z,18.49
2023-02-14T16:47:18.390Z,18.44
2023-02-14T16:49:46.785Z,18.52
2023-02-14T16:52:21.777Z,18.55
2023-02-14T16:54:51.094Z,18.39
2023-02-14T16:57:22.091Z,18.10
2023-02-14T16:59:52.801Z,17.79
2023-02-14T17:02:23.187Z,17.47
2023-02-14T17:04:51.330Z,17.21
2023-02-14T17:07:19.237Z,16.96
2023-02-14T17:09:55.148Z,16.73
2023-02-14T17:12:26.269Z,16.49
2023-02-14T17:14:55.794Z,16.33
2023-02-14T17:17:25.657Z,16.15
2023-02-14T17:19:56.069Z,16.06
2023-02-14T17:22:25.311Z,15.93
2023-02-14T17:24:54.333Z,15.82
2023-02-14T17:27:23.598Z,15.70
2023-02-14T17:29:52.243Z,15.61
2023-02-14T17:32:20.330Z,15.52
2023-02-14T17:34:49.895Z,15.40
2023-02-14T17:37:19.012Z,15.35
2023-02-14T17:39:47.106Z,15.27
2023-02-14T17:42:15.072Z,15.18
2023-02-14T17:44:43.197Z,15.12
2023-02-14T17:47:11.102Z,15.04
2023-02-14T17:49:39.109Z,14.97
2023-02-14T17:52:08.399Z,14.92
2023-02-14T17:54:37.988Z,14.87
2023-02-14T17:57:05.978Z,14.81
2023-02-14T17:59:34.328Z,14.74
2023-02-14T18:02:02.363Z,14.65
2023-02-14T18:04:30.877Z,14.67
2023-02-14T18:06:59.036Z,14.63
2023-02-14T18:09:31.078Z,14.61
2023-02-14T18:11:59.032Z,14.58
2023-02-14T18:14:27.226Z,14.47
2023-02-14T18:16:55.361Z,14.49
2023-02-14T18:19:23.332Z,14.45
2023-02-14T18:21:51.355Z,14.41
2023-02-14T18:24:20.012Z,14.36
2023-02-14T18:26:49.591Z,14.30
2023-02-14T18:29:17.551Z,14.26
2023-02-14T18:31:47.940Z,14.26
2023-02-14T18:34:15.954Z,14.21
2023-02-14T18:36:43.904Z,14.17
2023-02-14T18:39:13.273Z,14.13
2023-02-14T18:41:41.278Z,14.10
2023-02-14T18:44:10.690Z,14.06
2023-02-14T18:46:40.832Z,14.04
2023-02-14T18:49:09.518Z,14.01
2023-02-14T18:51:39.248Z,13.97
2023-02-14T18:55:00.744Z,13.96
2023-02-14T18:57:28.889Z,13.87
2023-02-14T18:59:58.807Z,13.82
2023-02-14T19:02:26.978Z,13.81
2023-02-14T19:04:55.199Z,13.78
2023-02-14T19:07:26.100Z,13.77
2023-02-14T19:09:54.168Z,13.71
2023-02-14T19:12:22.952Z,13.69
2023-02-14T19:14:51.532Z,13.64
2023-02-14T19:17:22.948Z,13.55
2023-02-14T19:19:53.180Z,13.59
2023-02-14T19:22:21.310Z,13.58
2023-02-14T19:24:49.397Z,13.55
2023-02-14T19:27:17.483Z,13.52
2023-02-14T19:29:45.567Z,13.44
2023-02-14T19:32:13.627Z,13.48
2023-02-14T19:34:46.397Z,13.43
2023-02-14T19:37:14.611Z,13.41
2023-02-14T19:39:43.304Z,13.37
2023-02-14T19:42:11.400Z,13.35
2023-02-14T19:44:43.135Z,13.32
2023-02-14T19:47:26.799Z,13.30
2023-02-14T19:49:58.947Z,13.26
2023-02-14T19:52:28.143Z,13.24
2023-02-14T19:54:57.509Z,13.14
2023-02-14T19:57:26.189Z,13.16
2023-02-14T19:59:54.231Z,13.13
2023-02-14T20:02:23.475Z,13.11
2023-02-14T20:04:53.518Z,13.05
2023-02-14T20:07:23.060Z,13.04
2023-02-14T20:09:52.153Z,13.03
2023-02-14T20:12:22.732Z,13.00
2023-02-14T20:14:54.111Z,12.98
2023-02-14T20:17:22.199Z,12.91
2023-02-14T20:19:50.150Z,12.90
2023-02-14T20:22:20.803Z,12.85
2023-02-14T20:24:50.227Z,12.81
2023-02-14T20:27:18.745Z,12.80
2023-02-14T20:29:46.856Z,12.78
2023-02-14T20:32:16.738Z,12.75
2023-02-14T20:34:44.828Z,12.74
2023-02-14T20:37:12.926Z,12.71
2023-02-14T20:39:40.997Z,12.67
2023-02-14T20:42:17.783Z,12.66
2023-02-14T20:44:46.462Z,12.61
2023-02-14T20:47:14.393Z,12.59
2023-02-14T20:49:45.266Z,12.56
2023-02-14T20:52:13.780Z,12.57
2023-02-14T20:54:41.719Z,12.55
2023-02-14T20:57:13.434Z,12.53
2023-02-14T20:59:45.013Z,12.50
2023-02-14T21:02:13.111Z,12.49
2023-02-14T21:04:41.240Z,12.46
2023-02-14T21:07:11.311Z,12.43
2023-02-14T21:09:39.447Z,12.40
2023-02-14T21:12:08.272Z,12.35
2023-02-14T21:14:40.232Z,12.35
2023-02-14T21:17:08.568Z,12.32
2023-02-14T21:19:37.196Z,12.28
2023-02-14T21:22:05.999Z,12.24
2023-02-14T21:24:37.419Z,12.17
2023-02-14T21:27:06.818Z,12.18
2023-02-14T21:29:34.739Z,12.15
2023-02-14T21:32:04.697Z,12.13
2023-02-14T21:34:32.854Z,12.11
2023-02-14T21:37:00.811Z,12.07
2023-02-14T21:39:30.976Z,12.07
2023-02-14T21:41:59.721Z,12.04
2023-02-14T21:44:45.463Z,12.04
2023-02-14T21:47:14.812Z,11.99
2023-02-14T21:50:00.166Z,11.99
2023-02-14T21:52:31.289Z,11.96
2023-02-14T21:54:59.296Z,11.95
2023-02-14T21:57:27.228Z,11.92
2023-02-14T21:59:55.259Z,11.93
2023-02-14T22:02:25.748Z,11.93
2023-02-14T22:04:53.797Z,11.93
2023-02-14T22:07:21.730Z,11.93
2023-02-14T22:09:49.719Z,11.91
2023-02-14T22:12:17.678Z,11.71
2023-02-14T22:14:45.720Z,11.83
2023-02-14T22:17:13.711Z,11.86
2023-02-14T22:19:43.162Z,11.88
2023-02-14T22:22:11.168Z,11.84
2023-02-14T22:24:42.156Z,11.84
2023-02-14T22:27:10.282Z,11.81
2023-02-14T22:29:40.621Z,11.85
2023-02-14T22:32:09.689Z,11.84
2023-02-14T22:34:40.214Z,11.82
2023-02-14T22:37:11.802Z,11.79
2023-02-14T22:39:39.885Z,11.78
2023-02-14T22:42:07.852Z,11.78
2023-02-14T22:44:37.007Z,11.78
2023-02-14T22:47:05.171Z,11.73
2023-02-14T22:49:33.192Z,11.64
2023-02-14T22:52:01.247Z,11.72
2023-02-14T22:54:30.566Z,11.70
2023-02-14T22:56:59.852Z,11.70
2023-02-14T22:59:28.610Z,11.66
2023-02-14T23:01:56.581Z,11.65
2023-02-14T23:04:24.894Z,11.65
2023-02-14T23:06:52.873Z,11.68
2023-02-14T23:09:20.976Z,11.69
2023-02-14T23:11:54.533Z,11.63
2023-02-14T23:14:40.537Z,11.63
2023-02-14T23:17:43.354Z,11.64
2023-02-14T23:20:29.506Z,11.61
2023-02-14T23:22:57.676Z,11.61
2023-02-14T23:25:25.744Z,11.61
2023-02-14T23:27:55.219Z,11.63
2023-02-14T23:30:23.339Z,11.62
2023-02-14T23:32:52.855Z,11.61
2023-02-14T23:35:20.850Z,11.60
2023-02-14T23:37:48.780Z,11.61
2023-02-14T23:40:16.837Z,11.61
2023-02-14T23:42:44.820Z,11.60
2023-02-14T23:45:32.434Z,11.59
2023-02-14T23:48:02.920Z,11.55
2023-02-14T23:50:30.903Z,11.58
2023-02-14T23:52:58.935Z,11.60
2023-02-14T23:55:26.906Z,11.60
2023-02-14T23:57:54.803Z,11.58
